createdAt,value
2023-04-19T00:01:15.268Z,84.22
2023-04-19T00:03:43.807Z,83.70
2023-04-19T00:06:15.280Z,83.31
2023-04-19T00:08:43.752Z,82.55
2023-04-19T00:11:13.516Z,83.02
2023-04-19T00:13:41.798Z,81.84
2023-04-19T00:16:10.148Z,80.55
2023-04-19T00:18:38.990Z,78.20
2023-04-19T00:21:07.741Z,78.30
2023-04-19T00:23:36.536Z,78.74
2023-04-19T00:26:05.278Z,79.06
2023-04-19T00:28:35.422Z,78.06
2023-04-19T00:31:03.905Z,77.95
2023-04-19T00:33:32.237Z,77.68
2023-04-19T00:36:00.565Z,77.79
2023-04-19T00:38:28.894Z,79.32
2023-04-19T00:40:57.172Z,79.05
2023-04-19T00:43:25.490Z,78.86
2023-04-19T00:45:55.431Z,78.75
2023-04-19T00:48:23.987Z,78.56
2023-04-19T00:50:52.642Z,78.25
2023-04-19T00:53:20.953Z,78.09
2023-04-19T00:55:51.196Z,79.90
2023-04-19T00:58:19.489Z,80.38
2023-04-19T01:00:47.711Z,81.76
2023-04-19T01:03:18.745Z,82.73
2023-04-19T01:05:47.260Z,81.77
2023-04-19T01:08:16.141Z,82.29
2023-04-19T01:10:44.398Z,80.59
2023-04-19T01:13:12.849Z,81.30
2023-04-19T01:15:41.396Z,80.70
2023-04-19T01:18:11.538Z,80.77
2023-04-19T01:20:41.365Z,79.91
2023-04-19T01:23:12.610Z,81.54
2023-04-19T01:25:41.002Z,78.65
2023-04-19T01:28:09.336Z,79.15
2023-04-19T01:30:38.521Z,77.92
2023-04-19T01:33:06.727Z,78.33
2023-04-19T01:35:35.139Z,77.70
2023-04-19T01:38:03.426Z,78.66
2023-04-19T01:40:33.202Z,80.14
2023-04-19T01:43:01.539Z,80.49
2023-04-19T01:45:29.793Z,81.21
2023-04-19T01:47:59.246Z,81.26
2023-04-19T01:50:27.556Z,81.94
2023-04-19T01:52:55.878Z,82.74
2023-04-19T01:55:24.466Z,81.59
2023-04-19T01:57:55.076Z,80.65
2023-04-19T02:00:23.884Z,78.79
2023-04-19T02:02:52.325Z,79.94
2023-04-19T02:05:21.245Z,80.60
2023-04-19T02:07:49.546Z,80.83
2023-04-19T02:10:17.949Z,79.42
2023-04-19T02:12:46.199Z,79.17
2023-04-19T02:15:15.986Z,79.89
2023-04-19T02:17:44.260Z,80.74
2023-04-19T02:20:12.867Z,83.20
2023-04-19T02:22:41.181Z,83.75
2023-04-19T02:25:10.144Z,83.62
2023-04-19T02:27:38.533Z,84.23
2023-04-19T02:30:08.407Z,83.11
2023-04-19T02:32:38.205Z,83.77
2023-04-19T02:35:07.180Z,83.74
2023-04-19T02:37:35.418Z,83.96
2023-04-19T02:40:05.378Z,83.87
2023-04-19T02:42:33.741Z,82.71
2023-04-19T02:45:02.061Z,84.21
2023-04-19T02:47:30.532Z,83.81
2023-04-19T02:50:01.350Z,84.32
2023-04-19T02:52:29.674Z,83.69
2023-04-19T02:54:57.967Z,83.83
2023-04-19T02:57:26.289Z,84.39
2023-04-19T02:59:54.625Z,84.07
2023-04-19T03:02:23.499Z,83.54
2023-04-19T03:04:53.166Z,83.17
2023-04-19T03:07:22.968Z,84.13
2023-04-19T03:09:51.224Z,83.89
2023-04-19T03:12:19.527Z,83.95
2023-04-19T03:14:47.961Z,83.07
2023-04-19T03:17:16.671Z,83.94
2023-04-19T03:19:45.050Z,84.12
2023-04-19T03:22:13.391Z,84.84
2023-04-19T03:24:43.132Z,83.74
2023-04-19T03:27:11.428Z,83.29
2023-04-19T03:29:39.735Z,84.06
2023-04-19T03:32:08.461Z,84.52
2023-04-19T03:34:36.820Z,84.95
2023-04-19T03:37:05.110Z,84.67
2023-04-19T03:39:33.954Z,85.19
2023-04-19T03:42:03.965Z,85.27
2023-04-19T03:44:34.123Z,83.96
2023-04-19T03:47:02.342Z,84.59
2023-04-19T03:49:30.682Z,84.52
2023-04-19T03:51:58.913Z,85.22
2023-04-19T03:54:27.269Z,86.62
2023-04-19T03:56:55.462Z,87.33
2023-04-19T03:59:25.248Z,87.60
2023-04-19T04:01:53.678Z,88.02
2023-04-19T04:04:22.471Z,87.14
2023-04-19T04:06:51.319Z,87.43
2023-04-19T04:09:19.766Z,87.83
2023-04-19T04:11:48.007Z,87.90
2023-04-19T04:14:16.643Z,88.44
2023-04-19T04:16:46.730Z,87.62
2023-04-19T04:19:15.457Z,88.00
2023-04-19T04:21:43.988Z,88.76
2023-04-19T04:24:12.611Z,88.66
2023-04-19T04:26:41.205Z,88.37
2023-04-19T04:29:10.689Z,88.74
2023-04-19T04:31:39.500Z,88.33
2023-04-19T04:34:10.113Z,88.40
2023-04-19T04:36:38.676Z,88.23
2023-04-19T04:39:10.473Z,88.15
2023-04-19T04:41:42.286Z,86.61
2023-04-19T04:44:13.181Z,86.77
2023-04-19T04:46:41.487Z,87.75
2023-04-19T04:49:11.204Z,86.58
2023-04-19T04:51:39.474Z,85.74
2023-04-19T04:54:07.802Z,85.36
2023-04-19T04:56:36.255Z,86.43
2023-04-19T04:59:04.642Z,84.27
2023-04-19T05:01:33.335Z,84.94
2023-04-19T05:04:02.209Z,83.83
2023-04-19T05:06:32.182Z,84.02
2023-04-19T05:09:00.560Z,84.39
2023-04-19T05:11:29.198Z,84.36
2023-04-19T05:13:57.576Z,85.19
2023-04-19T05:16:25.957Z,85.08
2023-04-19T05:18:55.731Z,85.45
2023-04-19T05:21:24.593Z,85.15
2023-04-19T05:23:54.905Z,85.23
2023-04-19T05:26:23.266Z,79.48
2023-04-19T05:28:51.676Z,81.72
2023-04-19T05:31:21.337Z,80.68
2023-04-19T05:33:49.970Z,79.08
2023-04-19T05:36:19.321Z,78.05
2023-04-19T05:38:47.883Z,77.78
2023-04-19T05:41:17.972Z,76.04
2023-04-19T05:43:46.327Z,72.22
2023-04-19T05:46:15.005Z,69.83
2023-04-19T05:48:43.424Z,66.54
2023-04-19T05:51:11.884Z,66.03
2023-04-19T05:53:40.159Z,64.73
2023-04-19T05:56:08.975Z,63.75
2023-04-19T05:58:38.833Z,63.90
2023-04-19T06:01:07.735Z,62.90
2023-04-19T06:03:36.260Z,63.16
2023-04-19T06:06:05.095Z,62.91
2023-04-19T06:08:33.345Z,62.45
2023-04-19T06:11:08.277Z,62.07
2023-04-19T06:13:51.347Z,62.33
2023-04-19T06:16:19.694Z,61.80
2023-04-19T06:18:48.145Z,61.55
2023-04-19T06:21:16.984Z,61.87
2023-04-19T06:23:45.280Z,62.18
2023-04-19T06:26:13.612Z,60.48
2023-04-19T06:28:41.878Z,60.37
2023-04-19T06:31:12.463Z,60.48
2023-04-19T06:33:40.838Z,60.77
2023-04-19T06:36:10.793Z,60.72
2023-04-19T06:38:39.369Z,60.62
2023-04-19T06:41:07.697Z,60.37
2023-04-19T06:43:36.267Z,60.62
2023-04-19T06:46:06.501Z,59.42
2023-04-19T06:48:37.204Z,58.73
2023-04-19T06:51:05.866Z,57.79
2023-04-19T06:53:34.927Z,58.46
2023-04-19T06:56:04.522Z,58.71
2023-04-19T06:58:34.876Z,57.89
2023-04-19T07:01:05.577Z,58.23
2023-04-19T07:03:34.242Z,56.24
2023-04-19T07:06:04.449Z,56.86
2023-04-19T07:08:46.443Z,56.40
2023-04-19T07:11:17.403Z,57.59
2023-04-19T07:13:45.708Z,55.09
2023-04-19T07:16:15.034Z,54.92
2023-04-19T07:18:44.066Z,54.91
2023-04-19T07:21:14.215Z,54.36
2023-04-19T07:23:42.433Z,55.05
2023-04-19T07:26:10.940Z,54.59
2023-04-19T07:28:41.385Z,54.46
2023-04-19T07:31:09.810Z,55.10
2023-04-19T07:33:38.198Z,53.48
2023-04-19T07:36:06.921Z,53.23
2023-04-19T07:38:36.859Z,51.92
2023-04-19T07:41:05.515Z,50.05
2023-04-19T07:43:34.145Z,50.76
2023-04-19T07:46:02.658Z,51.75
2023-04-19T07:48:31.178Z,51.46
2023-04-19T07:51:09.167Z,52.58
2023-04-19T07:53:40.546Z,50.73
2023-04-19T07:56:11.430Z,51.95
2023-04-19T07:58:41.571Z,51.98
2023-04-19T08:01:10.180Z,50.97
2023-04-19T08:03:39.106Z,51.55
2023-04-19T08:06:09.198Z,51.49
2023-04-19T08:08:39.107Z,51.54
2023-04-19T08:11:07.869Z,50.83
2023-04-19T08:13:36.197Z,51.06
2023-04-19T08:16:36.983Z,50.03
2023-04-19T08:18:52.830Z,50.44
2023-04-19T08:21:26.036Z,50.24
2023-04-19T08:24:01.112Z,50.21
2023-04-19T08:26:29.515Z,51.41
2023-04-19T08:28:58.376Z,51.48
2023-04-19T08:31:27.269Z,49.60
2023-04-19T08:33:56.020Z,50.64
2023-04-19T08:36:37.098Z,51.61
2023-04-19T08:39:24.692Z,51.14
2023-04-19T08:42:12.576Z,50.84
2023-04-19T08:45:22.593Z,51.37
2023-04-19T08:50:31.278Z,47.98
2023-04-19T08:55:38.163Z,48.56
2023-04-19T08:58:15.289Z,49.89
2023-04-19T09:00:51.790Z,48.62
2023-04-19T09:03:20.497Z,47.53
2023-04-19T09:05:49.086Z,49.08
2023-04-19T09:08:26.650Z,49.56
2023-04-19T09:10:58.832Z,48.28
2023-04-19T09:13:27.952Z,49.15
2023-04-19T09:15:57.385Z,48.78
2023-04-19T09:18:27.316Z,49.25
2023-04-19T09:20:58.647Z,47.15
2023-04-19T09:23:29.186Z,47.28
2023-04-19T09:28:33.547Z,48.59
2023-04-19T09:31:33.337Z,47.74
2023-04-19T09:34:15.714Z,48.62
2023-04-19T09:36:44.541Z,50.98
2023-04-19T09:39:14.915Z,52.53
2023-04-19T09:41:54.346Z,50.75
2023-04-19T09:46:54.228Z,53.31
2023-04-19T09:49:41.171Z,52.75
2023-04-19T09:52:16.579Z,52.88
2023-04-19T09:54:46.902Z,52.34
2023-04-19T09:57:17.139Z,51.60
2023-04-19T09:59:45.643Z,50.24
2023-04-19T10:02:15.773Z,50.85
2023-04-19T10:07:30.293Z,52.70
2023-04-19T10:15:08.183Z,53.06
2023-04-19T10:17:36.757Z,55.23
2023-04-19T10:20:09.591Z,54.62
2023-04-19T10:22:39.118Z,52.73
2023-04-19T10:25:15.909Z,53.18
2023-04-19T10:27:49.142Z,53.96
2023-04-19T10:30:22.058Z,53.85
2023-04-19T10:32:56.598Z,55.55
2023-04-19T10:35:26.066Z,56.43
2023-04-19T10:38:09.977Z,57.85
2023-04-19T10:41:04.642Z,72.46
2023-04-19T10:43:35.837Z,74.91
2023-04-19T10:46:08.890Z,73.00
2023-04-19T10:48:44.273Z,78.63
2023-04-19T10:51:17.208Z,85.42
2023-04-19T10:53:53.683Z,85.72
2023-04-19T10:56:24.371Z,89.27
2023-04-19T10:59:24.868Z,90.67
2023-04-19T11:01:55.582Z,79.73
2023-04-19T11:04:28.514Z,84.74
2023-04-19T11:07:02.921Z,93.82
2023-04-19T11:09:34.755Z,100.00
2023-04-19T11:12:05.335Z,100.00
2023-04-19T11:14:38.282Z,100.00
2023-04-19T11:17:17.313Z,100.00
2023-04-19T11:19:46.981Z,100.00
2023-04-19T11:22:15.317Z,100.00
2023-04-19T11:24:48.561Z,100.00
2023-04-19T11:27:17.249Z,100.00
2023-04-19T11:29:47.834Z,100.00
2023-04-19T11:32:16.691Z,100.00
2023-04-19T11:34:45.168Z,100.00
2023-04-19T11:37:13.559Z,100.00
2023-04-19T11:39:48.710Z,100.00
2023-04-19T11:42:21.548Z,100.00
2023-04-19T11:44:54.397Z,100.00
2023-04-19T11:47:23.241Z,100.00
2023-04-19T11:49:52.324Z,100.00
2023-04-19T11:52:25.600Z,100.00
2023-04-19T11:54:54.411Z,100.00
2023-04-19T11:57:30.891Z,100.00
2023-04-19T12:00:12.488Z,100.00
2023-04-19T12:02:42.561Z,100.00
2023-04-19T12:05:13.107Z,100.00
2023-04-19T12:08:00.896Z,100.00
2023-04-19T12:10:29.396Z,100.00
2023-04-19T12:12:57.786Z,100.00
2023-04-19T12:15:43.168Z,100.00
2023-04-19T12:18:11.909Z,100.00
2023-04-19T12:20:46.875Z,100.00
2023-04-19T12:23:16.015Z,100.00
2023-04-19T12:25:46.290Z,100.00
2023-04-19T12:28:16.121Z,100.00
2023-04-19T12:30:48.058Z,97.19
2023-04-19T12:33:16.541Z,92.66
2023-04-19T12:35:45.208Z,90.67
2023-04-19T12:38:13.747Z,93.28
2023-04-19T12:40:42.090Z,95.61
2023-04-19T12:43:10.447Z,95.95
2023-04-19T12:45:38.730Z,94.95
2023-04-19T12:48:09.129Z,92.45
2023-04-19T12:50:37.464Z,90.60
2023-04-19T12:53:07.083Z,92.22
2023-04-19T12:55:35.382Z,89.83
2023-04-19T12:58:03.742Z,88.31
2023-04-19T13:00:32.062Z,88.66
2023-04-19T13:03:00.555Z,87.98
2023-04-19T13:05:30.704Z,88.21
2023-04-19T13:07:59.150Z,84.74
2023-04-19T13:10:27.927Z,85.63
2023-04-19T13:12:56.516Z,87.24
2023-04-19T13:15:25.104Z,87.88
2023-04-19T13:17:53.407Z,86.08
2023-04-19T13:20:23.430Z,86.40
2023-04-19T13:22:53.224Z,85.02
2023-04-19T13:25:22.424Z,85.45
2023-04-19T13:27:51.824Z,83.50
2023-04-19T13:30:20.141Z,81.10
2023-04-19T13:32:48.750Z,83.16
2023-04-19T13:35:17.410Z,81.62
2023-04-19T13:37:47.456Z,82.50
2023-04-19T13:40:19.705Z,79.68
2023-04-19T13:42:48.786Z,80.74
2023-04-19T13:45:17.168Z,78.39
2023-04-19T13:47:45.750Z,78.18
2023-04-19T13:50:15.264Z,76.59
2023-04-19T13:52:43.709Z,77.76
2023-04-19T13:55:11.937Z,71.89
2023-04-19T13:57:41.792Z,72.37
2023-04-19T14:00:11.443Z,74.05
2023-04-19T14:02:40.137Z,75.09
2023-04-19T14:05:09.366Z,76.66
2023-04-19T14:07:37.950Z,72.88
2023-04-19T14:10:07.386Z,70.05
2023-04-19T14:12:35.729Z,70.50
2023-04-19T14:15:07.038Z,69.22
2023-04-19T14:17:36.322Z,67.40
2023-04-19T14:20:07.254Z,68.26
2023-04-19T14:22:36.553Z,65.76
2023-04-19T14:25:05.024Z,64.58
2023-04-19T14:27:34.025Z,63.61
2023-04-19T14:30:02.493Z,62.03
2023-04-19T14:32:32.323Z,62.10
2023-04-19T14:35:02.066Z,65.67
2023-04-19T14:37:30.789Z,66.72
2023-04-19T14:39:59.141Z,68.90
2023-04-19T14:42:27.737Z,71.64
2023-04-19T14:44:55.962Z,73.45
2023-04-19T14:47:24.371Z,75.70
2023-04-19T14:49:54.239Z,76.16
2023-04-19T14:52:22.652Z,76.85
2023-04-19T14:54:51.002Z,76.90
2023-04-19T14:57:20.503Z,75.59
2023-04-19T14:59:48.909Z,75.56
2023-04-19T15:02:17.259Z,74.58
2023-04-19T15:04:45.820Z,76.61
2023-04-19T15:07:15.740Z,76.88
2023-04-19T15:09:44.123Z,75.69
2023-04-19T15:12:12.467Z,77.45
2023-04-19T15:14:41.305Z,78.55
2023-04-19T15:17:09.934Z,79.66
2023-04-19T15:19:40.009Z,81.09
2023-04-19T15:22:08.359Z,82.67
2023-04-19T15:24:38.830Z,84.20
2023-04-19T15:27:07.124Z,84.72
2023-04-19T15:29:36.508Z,83.36
2023-04-19T15:32:04.902Z,84.86
2023-04-19T15:34:33.541Z,86.42
2023-04-19T15:37:02.627Z,86.55
2023-04-19T15:39:30.907Z,90.91
2023-04-19T15:42:02.188Z,95.27
2023-04-19T15:44:30.915Z,99.08
2023-04-19T15:46:59.560Z,100.00
2023-04-19T15:49:27.903Z,100.00
2023-04-19T15:51:56.137Z,100.00
2023-04-19T15:54:24.806Z,100.00
2023-04-19T15:56:53.095Z,100.00
2023-04-19T15:59:22.934Z,100.00
2023-04-19T16:01:51.344Z,100.00
2023-04-19T16:04:20.023Z,100.00
2023-04-19T16:06:48.458Z,100.00
2023-04-19T16:09:17.329Z,100.00
2023-04-19T16:11:46.430Z,100.00
2023-04-19T16:14:17.600Z,100.00
2023-04-19T16:17:23.608Z,100.00
2023-04-19T16:20:08.159Z,100.00
2023-04-19T16:25:52.995Z,100.00
2023-04-19T16:28:22.641Z,100.00
2023-04-19T16:30:51.280Z,100.00
2023-04-19T16:33:21.081Z,100.00
2023-04-19T16:35:49.630Z,100.00
2023-04-19T16:38:18.074Z,100.00
2023-04-19T16:40:48.762Z,100.00
2023-04-19T16:43:17.318Z,100.00
2023-04-19T16:45:45.915Z,100.00
2023-04-19T16:48:14.340Z,100.00
2023-04-19T16:50:44.127Z,100.00
2023-04-19T16:53:12.819Z,100.00
2023-04-19T16:55:41.110Z,100.00
2023-04-19T16:58:09.362Z,100.00
2023-04-19T17:00:37.666Z,100.00
2023-04-19T17:03:06.126Z,100.00
2023-04-19T17:05:34.519Z,100.00
2023-04-19T17:08:07.609Z,100.00
2023-04-19T17:10:37.042Z,100.00
2023-04-19T17:13:05.921Z,100.00
2023-04-19T17:15:42.409Z,100.00
2023-04-19T17:18:11.772Z,100.00
2023-04-19T17:20:42.549Z,100.00
2023-04-19T17:23:24.813Z,100.00
2023-04-19T17:26:24.062Z,100.00
2023-04-19T17:29:02.895Z,100.00
2023-04-19T17:31:32.727Z,100.00
2023-04-19T17:34:02.318Z,100.00
2023-04-19T17:36:33.974Z,100.00
2023-04-19T17:39:05.918Z,100.00
2023-04-19T17:41:36.759Z,100.00
2023-04-19T17:44:09.010Z,100.00
2023-04-19T17:46:48.451Z,100.00
2023-04-19T17:49:35.320Z,100.00
2023-04-19T17:52:10.306Z,100.00
2023-04-19T17:54:40.589Z,100.00
2023-04-19T17:57:09.498Z,100.00
2023-04-19T17:59:38.306Z,100.00
2023-04-19T18:02:10.513Z,100.00
2023-04-19T18:04:44.913Z,100.00
2023-04-19T18:07:16.324Z,100.00
2023-04-19T18:10:20.229Z,100.00
2023-04-19T18:12:49.063Z,100.00
2023-04-19T18:15:18.080Z,100.00
2023-04-19T18:17:46.837Z,100.00
2023-04-19T18:20:16.447Z,100.00
2023-04-19T18:22:45.103Z,100.00
2023-04-19T18:25:15.570Z,100.00
2023-04-19T18:27:44.599Z,100.00
2023-04-19T18:30:13.945Z,100.00
2023-04-19T18:32:42.688Z,100.00
2023-04-19T18:35:13.134Z,100.00
2023-04-19T18:37:41.991Z,100.00
2023-04-19T18:40:12.454Z,100.00
2023-04-19T18:42:43.105Z,100.00
2023-04-19T18:45:12.758Z,100.00
2023-04-19T18:47:41.277Z,100.00
2023-04-19T18:50:12.353Z,100.00
2023-04-19T18:53:02.901Z,100.00
2023-04-19T18:55:35.328Z,100.00
2023-04-19T18:58:06.378Z,100.00
2023-04-19T19:00:38.053Z,100.00
2023-04-19T19:05:37.010Z,100.00
2023-04-19T19:08:10.465Z,100.00
2023-04-19T19:11:07.086Z,100.00
2023-04-19T19:13:30.042Z,100.00
2023-04-19T19:15:59.025Z,100.00
2023-04-19T19:18:29.534Z,100.00
2023-04-19T19:21:00.636Z,100.00
2023-04-19T19:26:03.076Z,100.00
2023-04-19T19:28:34.399Z,100.00
2023-04-19T19:31:11.335Z,100.00
2023-04-19T19:33:40.784Z,100.00
2023-04-19T19:36:09.874Z,100.00
2023-04-19T19:38:39.218Z,100.00
2023-04-19T19:41:55.254Z,100.00
2023-04-19T19:44:00.597Z,100.00
2023-04-19T19:46:30.957Z,100.00
2023-04-19T19:48:59.827Z,100.00
2023-04-19T19:51:53.411Z,100.00
2023-04-19T19:54:17.678Z,100.00
2023-04-19T19:57:21.758Z,100.00
2023-04-19T19:59:39.321Z,100.00
2023-04-19T20:02:08.453Z,100.00
2023-04-19T20:04:43.293Z,100.00
2023-04-19T20:09:45.945Z,100.00
2023-04-19T20:12:16.754Z,100.00
2023-04-19T20:14:47.213Z,100.00
2023-04-19T20:17:20.494Z,100.00
2023-04-19T20:19:52.572Z,100.00
2023-04-19T20:22:22.772Z,100.00
2023-04-19T20:24:53.132Z,100.00
2023-04-19T20:27:22.077Z,100.00
2023-04-19T20:29:53.877Z,100.00
2023-04-19T20:32:22.783Z,100.00
2023-04-19T20:34:52.102Z,100.00
2023-04-19T20:37:22.984Z,100.00
2023-04-19T20:39:52.321Z,100.00
2023-04-19T20:42:21.428Z,100.00
2023-04-19T20:44:52.061Z,100.00
2023-04-19T20:47:22.061Z,100.00
2023-04-19T20:49:52.130Z,100.00
2023-04-19T20:52:21.179Z,100.00
2023-04-19T20:54:49.958Z,100.00
2023-04-19T20:57:19.006Z,100.00
2023-04-19T20:59:49.296Z,100.00
2023-04-19T21:02:20.083Z,100.00
2023-04-19T21:04:49.685Z,100.00
2023-04-19T21:07:18.643Z,100.00
2023-04-19T21:09:47.344Z,100.00
2023-04-19T21:12:16.268Z,100.00
2023-04-19T21:14:48.499Z,100.00
2023-04-19T21:17:19.893Z,100.00
2023-04-19T21:19:49.004Z,100.00
2023-04-19T21:22:17.896Z,100.00
2023-04-19T21:24:46.683Z,100.00
2023-04-19T21:27:16.090Z,100.00
2023-04-19T21:29:46.145Z,100.00
2023-04-19T21:32:15.023Z,100.00
2023-04-19T21:34:48.491Z,100.00
2023-04-19T21:37:19.115Z,100.00
2023-04-19T21:39:48.180Z,100.00
2023-04-19T21:42:17.046Z,100.00
2023-04-19T21:44:46.153Z,100.00
2023-04-19T21:47:18.424Z,100.00
2023-04-19T21:49:49.221Z,100.00
2023-04-19T21:52:18.113Z,100.00
2023-04-19T21:54:49.304Z,100.00
2023-04-19T21:57:22.579Z,100.00
2023-04-19T21:59:51.785Z,100.00
2023-04-19T22:02:20.957Z,100.00
2023-04-19T22:05:02.462Z,100.00
2023-04-19T22:07:32.523Z,100.00
2023-04-19T22:10:04.301Z,100.00
2023-04-19T22:12:40.637Z,100.00
2023-04-19T22:15:14.503Z,100.00
2023-04-19T22:17:44.888Z,100.00
2023-04-19T22:20:16.113Z,100.00
2023-04-19T22:22:45.792Z,100.00
2023-04-19T22:25:15.072Z,100.00
2023-04-19T22:27:44.102Z,100.00
2023-04-19T22:30:13.621Z,100.00
2023-04-19T22:32:43.247Z,100.00
2023-04-19T22:35:12.339Z,100.00
2023-04-19T22:37:42.828Z,100.00
2023-04-19T22:40:12.833Z,100.00
2023-04-19T22:42:41.864Z,100.00
2023-04-19T22:45:12.168Z,100.00
2023-04-19T22:47:41.272Z,100.00
2023-04-19T22:50:11.778Z,100.00
2023-04-19T22:52:42.946Z,100.00
2023-04-19T22:55:12.526Z,100.00
2023-04-19T22:57:41.806Z,100.00
2023-04-19T23:00:12.158Z,100.00
2023-04-19T23:02:41.321Z,100.00
2023-04-19T23:05:11.611Z,100.00
2023-04-19T23:07:43.494Z,100.00
2023-04-19T23:10:12.764Z,100.00
2023-04-19T23:12:41.603Z,100.00
2023-04-19T23:15:11.607Z,100.00
2023-04-19T23:17:41.057Z,100.00
2023-04-19T23:20:11.860Z,100.00
2023-04-19T23:22:42.504Z,100.00
2023-04-19T23:25:12.191Z,100.00
2023-04-19T23:27:41.249Z,100.00
2023-04-19T23:30:10.903Z,100.00
2023-04-19T23:32:39.830Z,100.00
2023-04-19T23:35:09.362Z,100.00
2023-04-19T23:37:38.342Z,100.00
2023-04-19T23:40:10.740Z,100.00
2023-04-19T23:42:40.050Z,100.00
2023-04-19T23:45:09.492Z,100.00
2023-04-19T23:47:38.564Z,100.00
2023-04-19T23:50:08.431Z,100.00
2023-04-19T23:52:37.481Z,100.00
2023-04-19T23:55:08.337Z,100.00
2023-04-19T23:57:37.284Z,100.00
